createdAt,value
2023-02-11T00:27:00.446Z,9.53
2023-02-11T00:29:58.147Z,9.47
2023-02-11T00:32:55.944Z,13.97
2023-02-11T00:35:53.602Z,10.70
2023-02-11T00:38:52.669Z,13.30
2023-02-11T00:41:51.287Z,12.07
2023-02-11T00:44:49.233Z,12.30
2023-02-11T00:47:47.014Z,7.93
2023-02-11T00:50:45.142Z,10.23
2023-02-11T00:53:42.875Z,13.77
2023-02-11T00:56:40.693Z,15.07
2023-02-11T00:59:38.585Z,21.53
2023-02-11T01:02:36.543Z,18.80
2023-02-11T01:05:34.475Z,13.63
2023-02-11T01:08:32.300Z,12.77
2023-02-11T01:11:30.045Z,11.83
2023-02-11T01:14:27.829Z,13.40
2023-02-11T01:17:25.482Z,13.60
2023-02-11T01:20:26.272Z,15.50
2023-02-11T01:23:24.169Z,9.47
2023-02-11T01:26:21.986Z,15.47
2023-02-11T01:29:19.652Z,11.20
2023-02-11T01:32:17.681Z,12.83
2023-02-11T01:35:15.782Z,11.67
2023-02-11T01:38:19.446Z,9.93
2023-02-11T01:41:17.687Z,13.03
2023-02-11T01:44:33.660Z,13.47
2023-02-11T01:47:31.713Z,8.33
2023-02-11T01:50:29.657Z,11.90
2023-02-11T01:53:43.496Z,10.47
2023-02-11T01:57:02.261Z,11.63
2023-02-11T02:00:13.340Z,12.57
2023-02-11T02:03:16.479Z,13.87
2023-02-11T02:06:25.360Z,15.70
2023-02-11T02:09:26.665Z,11.87
2023-02-11T02:12:24.412Z,12.33
2023-02-11T02:15:27.200Z,10.73
2023-02-11T02:18:41.472Z,12.40
2023-02-11T02:22:10.976Z,10.03
2023-02-11T02:25:35.557Z,15.13
2023-02-11T02:29:02.239Z,13.23
2023-02-11T02:32:30.534Z,21.23
2023-02-11T02:35:45.684Z,16.23
2023-02-11T02:38:51.530Z,22.37
2023-02-11T02:41:51.500Z,19.67
2023-02-11T02:44:50.963Z,16.83
2023-02-11T02:47:48.742Z,17.73
2023-02-11T02:50:47.245Z,17.77
2023-02-11T02:54:01.284Z,16.27
2023-02-11T02:57:13.212Z,14.00
2023-02-11T03:00:33.668Z,17.40
2023-02-11T03:04:06.217Z,16.60
2023-02-11T03:07:26.932Z,20.13
2023-02-11T03:10:32.519Z,15.80
2023-02-11T03:13:34.562Z,15.50
2023-02-11T03:16:39.243Z,15.63
2023-02-11T03:19:44.432Z,23.97
2023-02-11T03:22:48.502Z,15.77
2023-02-11T03:25:53.772Z,11.43
2023-02-11T03:29:11.230Z,17.57
2023-02-11T03:32:28.698Z,23.53
2023-02-11T03:35:35.984Z,24.50
2023-02-11T03:38:38.199Z,21.47
2023-02-11T03:41:37.139Z,20.67
2023-02-11T03:44:42.035Z,26.90
2023-02-11T03:47:44.109Z,18.00
2023-02-11T03:50:42.963Z,15.13
2023-02-11T03:53:43.978Z,19.87
2023-02-11T03:56:51.766Z,26.97
2023-02-11T03:59:52.333Z,23.00
2023-02-11T04:02:50.118Z,17.37
2023-02-11T04:05:48.700Z,15.70
2023-02-11T04:08:46.692Z,21.83
2023-02-11T04:11:44.346Z,19.53
2023-02-11T04:14:42.245Z,16.60
2023-02-11T04:17:39.937Z,15.52
2023-02-11T04:20:37.737Z,18.15
2023-02-11T04:23:35.599Z,20.23
2023-02-11T04:26:33.896Z,15.10
2023-02-11T04:29:32.448Z,20.30
2023-02-11T04:32:30.250Z,15.37
2023-02-11T04:35:28.305Z,15.15
2023-02-11T04:38:26.077Z,19.93
2023-02-11T04:41:23.711Z,13.07
2023-02-11T04:44:21.463Z,19.08
2023-02-11T04:47:19.179Z,19.00
2023-02-11T04:50:17.001Z,18.05
2023-02-11T04:53:14.658Z,21.02
2023-02-11T04:56:12.376Z,15.60
2023-02-11T04:59:10.283Z,22.17
2023-02-11T05:02:08.119Z,20.08
2023-02-11T05:05:06.539Z,20.40
2023-02-11T05:08:04.444Z,16.23
2023-02-11T05:11:02.652Z,17.17
2023-02-11T05:14:00.637Z,18.40
2023-02-11T05:16:58.387Z,18.77
2023-02-11T05:19:56.224Z,13.90
2023-02-11T05:22:53.923Z,17.08
2023-02-11T05:25:51.949Z,19.23
2023-02-11T05:28:49.824Z,17.85
2023-02-11T05:31:47.543Z,28.50
2023-02-11T05:34:45.354Z,24.00
2023-02-11T05:37:43.238Z,28.35
2023-02-11T05:40:41.367Z,29.33
2023-02-11T05:43:39.325Z,28.00
2023-02-11T05:46:37.275Z,25.73
2023-02-11T05:49:35.558Z,37.65
2023-02-11T05:52:33.220Z,41.90
2023-02-11T05:55:31.286Z,45.65
2023-02-11T05:58:29.142Z,62.17
2023-02-11T06:01:27.655Z,58.63
2023-02-11T06:04:25.365Z,71.05
2023-02-11T06:07:23.108Z,70.00
2023-02-11T06:10:20.873Z,73.40
2023-02-11T06:13:20.197Z,70.07
2023-02-11T06:16:18.021Z,74.38
2023-02-11T06:19:15.911Z,74.97
2023-02-11T06:22:13.546Z,70.68
2023-02-11T06:25:11.909Z,55.70
2023-02-11T06:28:11.030Z,72.07
2023-02-11T06:31:10.259Z,57.60
2023-02-11T06:34:09.739Z,68.05
2023-02-11T06:37:07.667Z,64.45
2023-02-11T06:40:05.923Z,75.03
2023-02-11T06:43:03.868Z,66.15
2023-02-11T06:46:01.537Z,67.18
2023-02-11T06:48:59.541Z,65.65
2023-02-11T06:51:57.182Z,72.22
2023-02-11T06:54:54.919Z,62.92
2023-02-11T06:57:52.632Z,62.70
2023-02-11T07:00:50.510Z,64.70
2023-02-11T07:03:48.311Z,64.50
2023-02-11T07:06:46.182Z,63.80
2023-02-11T07:09:43.946Z,76.28
2023-02-11T07:12:42.023Z,61.22
2023-02-11T07:15:39.646Z,62.92
2023-02-11T07:18:37.787Z,55.40
2023-02-11T07:21:35.559Z,54.05
2023-02-11T07:24:33.450Z,49.75
2023-02-11T07:27:31.120Z,61.63
2023-02-11T07:30:28.946Z,58.88
2023-02-11T07:33:26.558Z,69.40
2023-02-11T07:36:24.378Z,66.43
2023-02-11T07:39:22.967Z,69.65
2023-02-11T07:42:20.744Z,67.88
2023-02-11T07:45:18.518Z,109.25
2023-02-11T07:48:16.223Z,118.93
2023-02-11T07:51:17.079Z,111.72
2023-02-11T07:54:14.809Z,133.90
2023-02-11T07:57:12.642Z,126.85
2023-02-11T08:06:33.354Z,133.88
2023-02-11T08:09:34.134Z,136.38
2023-02-11T08:12:32.245Z,129.38
2023-02-11T08:15:29.929Z,129.90
2023-02-11T08:18:27.780Z,134.88
2023-02-11T08:21:26.325Z,125.65
2023-02-11T08:24:24.363Z,143.55
2023-02-11T08:27:22.001Z,149.65
2023-02-11T08:30:19.942Z,135.48
2023-02-11T08:33:17.635Z,133.95
2023-02-11T08:36:18.584Z,135.88
2023-02-11T08:39:20.818Z,133.38
2023-02-11T08:42:19.011Z,138.20
2023-02-11T08:45:16.676Z,120.82
2023-02-11T08:48:14.440Z,105.07
2023-02-11T08:51:17.121Z,99.95
2023-02-11T08:54:15.452Z,108.50
2023-02-11T08:57:13.233Z,98.72
2023-02-11T09:00:11.645Z,90.90
2023-02-11T09:03:09.278Z,74.28
2023-02-11T09:06:08.642Z,63.67
2023-02-11T09:09:06.767Z,46.90
2023-02-11T09:12:04.793Z,62.40
2023-02-11T09:15:02.602Z,44.78
2023-02-11T09:18:00.642Z,68.70
2023-02-11T09:21:07.846Z,65.75
2023-02-11T09:24:07.155Z,68.88
2023-02-11T09:27:06.108Z,67.85
2023-02-11T09:30:04.519Z,74.85
2023-02-11T09:33:02.270Z,73.60
2023-02-11T09:36:04.745Z,66.47
2023-02-11T09:39:04.516Z,60.60
2023-02-11T09:42:26.672Z,62.97
2023-02-11T09:45:27.922Z,63.35
2023-02-11T09:48:25.752Z,61.10
2023-02-11T09:51:42.600Z,86.28
2023-02-11T09:55:01.647Z,53.53
2023-02-11T09:57:59.568Z,46.65
2023-02-11T10:01:22.392Z,47.63
2023-02-11T10:04:42.795Z,42.90
2023-02-11T10:07:52.607Z,41.40
2023-02-11T10:10:54.501Z,31.80
2023-02-11T10:14:12.078Z,32.38
2023-02-11T10:17:26.152Z,31.35
2023-02-11T10:20:37.875Z,38.47
2023-02-11T10:23:39.324Z,41.63
2023-02-11T10:26:39.012Z,59.38
2023-02-11T10:29:41.098Z,88.70
2023-02-11T10:32:46.433Z,99.53
2023-02-11T10:35:44.446Z,107.82
2023-02-11T10:38:42.362Z,93.43
2023-02-11T10:41:44.847Z,83.97
2023-02-11T10:45:00.302Z,84.40
2023-02-11T10:47:59.809Z,75.43
2023-02-11T10:51:17.325Z,84.50
2023-02-11T10:54:21.674Z,79.32
2023-02-11T10:57:20.620Z,83.18
2023-02-11T11:00:39.354Z,80.40
2023-02-11T11:03:46.247Z,73.72
2023-02-11T11:06:43.962Z,78.80
2023-02-11T11:09:52.555Z,77.28
2023-02-11T11:12:50.304Z,72.32
2023-02-11T11:16:06.949Z,89.57
2023-02-11T11:19:21.764Z,74.38
2023-02-11T11:22:23.243Z,76.00
2023-02-11T11:25:25.317Z,69.65
2023-02-11T11:28:26.932Z,71.55
2023-02-11T11:31:30.664Z,74.18
2023-02-11T11:34:32.505Z,69.47
2023-02-11T11:37:33.084Z,69.15
2023-02-11T11:40:32.750Z,71.80
2023-02-11T11:43:30.615Z,76.03
2023-02-11T11:46:33.062Z,68.18
2023-02-11T11:49:36.368Z,78.33
2023-02-11T11:52:52.684Z,89.80
2023-02-11T11:56:01.059Z,79.88
2023-02-11T11:59:07.122Z,76.45
2023-02-11T12:02:38.616Z,81.95
2023-02-11T12:05:47.707Z,77.32
2023-02-11T12:09:02.414Z,83.60
2023-02-11T12:12:21.943Z,74.47
2023-02-11T12:15:37.083Z,82.32
2023-02-11T12:18:54.800Z,75.30
2023-02-11T12:22:12.375Z,78.60
2023-02-11T12:25:26.370Z,78.45
2023-02-11T12:28:37.795Z,78.13
2023-02-11T12:31:54.102Z,88.55
2023-02-11T12:35:11.845Z,78.25
2023-02-11T12:38:33.004Z,81.70
2023-02-11T12:42:11.410Z,79.50
2023-02-11T12:45:22.891Z,86.05
2023-02-11T12:48:44.621Z,78.90
2023-02-11T12:52:08.488Z,92.97
2023-02-11T12:55:27.335Z,87.97
2023-02-11T12:58:42.898Z,94.13
2023-02-11T13:01:45.196Z,89.43
2023-02-11T13:04:50.696Z,97.70
2023-02-11T13:07:50.807Z,97.88
2023-02-11T13:10:52.855Z,102.32
2023-02-11T13:14:11.627Z,108.05
2023-02-11T13:17:30.101Z,92.90
2023-02-11T13:20:44.947Z,90.47
2023-02-11T13:23:52.961Z,107.53
2023-02-11T13:27:05.982Z,95.55
2023-02-11T13:33:33.791Z,101.57
2023-02-11T13:36:33.633Z,102.22
2023-02-11T13:39:31.390Z,111.70
2023-02-11T13:42:30.669Z,117.45
2023-02-11T13:45:34.417Z,118.82
2023-02-11T13:48:46.927Z,120.13
2023-02-11T13:51:44.763Z,108.05
2023-02-11T13:54:48.156Z,99.72
2023-02-11T14:00:48.048Z,86.03
2023-02-11T14:04:22.234Z,74.07
2023-02-11T14:07:44.694Z,90.82
2023-02-11T14:10:52.384Z,92.68
2023-02-11T14:14:25.568Z,84.88
2023-02-11T14:17:31.422Z,77.07
2023-02-11T14:20:36.998Z,79.53
2023-02-11T14:23:34.759Z,74.07
2023-02-11T14:26:48.183Z,76.43
2023-02-11T14:30:09.477Z,97.40
2023-02-11T14:33:39.853Z,98.63
2023-02-11T14:36:52.323Z,121.93
2023-02-11T14:40:03.258Z,107.55
2023-02-11T14:43:14.033Z,126.25
2023-02-11T14:46:12.654Z,113.25
2023-02-11T14:49:22.087Z,118.35
2023-02-11T14:52:28.584Z,109.25
2023-02-11T14:55:33.583Z,110.30
2023-02-11T14:58:33.362Z,105.85
2023-02-11T15:01:35.580Z,95.35
2023-02-11T15:04:36.673Z,112.15
2023-02-11T15:07:34.931Z,103.10
2023-02-11T15:10:38.553Z,94.88
2023-02-11T15:13:36.479Z,93.50
2023-02-11T15:16:35.622Z,105.63
2023-02-11T15:19:45.548Z,96.97
2023-02-11T15:22:46.211Z,103.47
2023-02-11T15:25:46.724Z,101.53
2023-02-11T15:28:53.621Z,91.85
2023-02-11T15:32:07.349Z,97.97
2023-02-11T15:35:09.088Z,90.40
2023-02-11T15:38:07.131Z,100.05
2023-02-11T15:41:07.933Z,93.25
2023-02-11T15:44:05.655Z,90.97
2023-02-11T15:47:09.965Z,92.18
2023-02-11T15:50:08.472Z,80.28
2023-02-11T15:53:23.706Z,86.80
2023-02-11T15:56:31.230Z,78.60
2023-02-11T15:59:38.879Z,70.38
2023-02-11T16:02:53.671Z,70.38
2023-02-11T16:05:58.091Z,81.35
2023-02-11T16:09:22.835Z,87.38
2023-02-11T16:12:27.789Z,74.57
2023-02-11T16:15:45.960Z,79.60
2023-02-11T16:19:03.204Z,72.88
2023-02-11T16:22:08.814Z,82.78
2023-02-11T16:25:07.722Z,80.00
2023-02-11T16:28:07.189Z,78.07
2023-02-11T16:31:06.053Z,69.70
2023-02-11T16:34:06.317Z,75.60
2023-02-11T16:37:06.680Z,78.70
2023-02-11T16:40:04.388Z,77.65
2023-02-11T16:43:02.550Z,78.47
2023-02-11T16:46:00.462Z,89.32
2023-02-11T16:48:59.676Z,90.68
2023-02-11T16:52:02.244Z,91.78
2023-02-11T16:55:00.529Z,87.18
2023-02-11T16:57:58.698Z,101.20
2023-02-11T17:00:57.969Z,83.90
2023-02-11T17:03:55.655Z,75.43
2023-02-11T17:06:53.976Z,87.65
2023-02-11T17:09:52.646Z,101.10
2023-02-11T17:12:51.667Z,93.18
2023-02-11T17:15:49.858Z,91.22
2023-02-11T17:18:48.590Z,86.30
2023-02-11T17:21:47.504Z,78.07
2023-02-11T17:24:45.285Z,85.85
2023-02-11T17:27:43.301Z,82.63
2023-02-11T17:30:43.222Z,90.20
2023-02-11T17:33:41.086Z,91.82
2023-02-11T17:36:39.032Z,85.57
2023-02-11T17:39:38.405Z,78.97
2023-02-11T17:42:36.312Z,78.03
2023-02-11T17:45:34.695Z,85.15
2023-02-11T17:48:32.515Z,78.88
2023-02-11T17:51:33.287Z,84.07
2023-02-11T17:54:31.176Z,89.45
2023-02-11T17:57:28.869Z,79.10
2023-02-11T18:00:28.893Z,78.97
2023-02-11T18:03:26.822Z,86.72
2023-02-11T18:06:25.425Z,75.18
2023-02-11T18:09:23.226Z,77.10
2023-02-11T18:12:25.679Z,61.20
2023-02-11T18:15:23.910Z,59.33
2023-02-11T18:18:21.824Z,55.50
2023-02-11T18:21:21.295Z,47.05
2023-02-11T18:24:19.757Z,49.97
2023-02-11T18:27:17.472Z,52.60
2023-02-11T18:30:19.078Z,66.07
2023-02-11T18:33:16.804Z,64.90
2023-02-11T18:36:16.546Z,54.65
2023-02-11T18:39:14.243Z,51.67
2023-02-11T18:42:11.996Z,47.30
2023-02-11T18:45:12.953Z,38.45
2023-02-11T18:48:13.051Z,38.85
2023-02-11T18:51:15.328Z,36.92
2023-02-11T18:54:43.157Z,43.13
2023-02-11T18:57:40.952Z,40.45
2023-02-11T19:00:41.745Z,37.92
2023-02-11T19:03:39.533Z,36.53
2023-02-11T19:06:38.712Z,34.22
2023-02-11T19:09:36.941Z,35.47
2023-02-11T19:12:35.437Z,34.65
2023-02-11T19:15:33.256Z,33.88
2023-02-11T19:18:31.368Z,30.15
2023-02-11T19:21:29.760Z,29.10
2023-02-11T19:24:28.932Z,28.20
2023-02-11T19:27:26.617Z,22.15
2023-02-11T19:30:25.675Z,32.30
2023-02-11T19:33:23.367Z,31.67
2023-02-11T19:36:23.211Z,28.88
2023-02-11T19:39:21.416Z,26.40
2023-02-11T19:42:19.359Z,24.23
2023-02-11T19:45:17.054Z,19.92
2023-02-11T19:48:14.887Z,17.67
2023-02-11T19:51:13.403Z,17.27
2023-02-11T19:54:11.618Z,15.73
2023-02-11T19:57:09.294Z,22.83
2023-02-11T20:00:08.096Z,20.35
2023-02-11T20:03:07.212Z,18.60
2023-02-11T20:07:01.181Z,17.03
2023-02-11T20:09:59.521Z,18.07
2023-02-11T20:12:58.211Z,16.73
2023-02-11T20:15:56.981Z,16.50
2023-02-11T20:18:58.071Z,13.55
2023-02-11T20:21:56.181Z,8.77
2023-02-11T20:24:54.198Z,6.10
2023-02-11T20:27:51.909Z,9.10
2023-02-11T20:30:57.681Z,11.70
2023-02-11T20:33:56.869Z,11.70
2023-02-11T20:36:55.911Z,8.25
2023-02-11T20:39:53.774Z,10.25
2023-02-11T20:42:52.668Z,9.27
2023-02-11T20:45:50.813Z,9.73
2023-02-11T20:48:49.050Z,6.10
2023-02-11T20:51:46.890Z,7.07
2023-02-11T20:54:44.689Z,9.32
2023-02-11T20:57:50.137Z,5.55
2023-02-11T21:00:47.909Z,7.90
2023-02-11T21:03:55.801Z,9.97
2023-02-11T21:06:57.699Z,12.90
2023-02-11T21:09:55.423Z,6.55
2023-02-11T21:12:53.399Z,7.57
2023-02-11T21:15:56.371Z,8.55
2023-02-11T21:18:55.852Z,7.80
2023-02-11T21:21:55.573Z,9.63
2023-02-11T21:24:53.362Z,6.87
2023-02-11T21:27:51.206Z,10.50
2023-02-11T21:30:51.899Z,12.05
2023-02-11T21:33:50.404Z,8.70
2023-02-11T21:36:48.143Z,11.70
2023-02-11T21:39:45.809Z,8.60
2023-02-11T21:42:43.734Z,8.60
2023-02-11T21:45:46.285Z,7.90
2023-02-11T21:48:44.235Z,9.70
2023-02-11T21:51:42.098Z,7.97
2023-02-11T21:54:39.888Z,7.47
2023-02-11T21:57:37.529Z,7.15
2023-02-11T22:00:39.818Z,8.13
2023-02-11T22:03:40.247Z,10.15
2023-02-11T22:06:38.355Z,10.87
2023-02-11T22:09:38.295Z,11.27
2023-02-11T22:12:36.207Z,10.97
2023-02-11T22:15:34.191Z,8.83
2023-02-11T22:18:32.304Z,6.07
2023-02-11T22:21:30.694Z,6.18
2023-02-11T22:24:28.564Z,8.00
2023-02-11T22:27:29.478Z,8.33
2023-02-11T22:30:27.269Z,9.33
2023-02-11T22:33:26.102Z,5.60
2023-02-11T22:36:31.365Z,9.73
2023-02-11T22:39:30.073Z,11.30
2023-02-11T22:42:27.807Z,8.30
2023-02-11T22:45:25.703Z,7.00
2023-02-11T22:48:23.482Z,9.70
2023-02-11T22:51:25.100Z,9.20
2023-02-11T22:54:23.290Z,8.88
2023-02-11T22:57:20.933Z,7.95
2023-02-11T23:00:20.347Z,9.50
2023-02-11T23:03:18.128Z,9.10
2023-02-11T23:06:16.265Z,8.75
2023-02-11T23:09:14.390Z,4.97
2023-02-11T23:12:12.135Z,8.07
2023-02-11T23:15:09.889Z,12.37
2023-02-11T23:18:08.678Z,10.23
2023-02-11T23:21:12.501Z,11.90
2023-02-11T23:24:13.994Z,10.63
2023-02-11T23:27:11.674Z,8.32
2023-02-11T23:30:10.163Z,8.93
2023-02-11T23:33:07.867Z,6.78
2023-02-11T23:36:06.046Z,7.83
2023-02-11T23:39:04.136Z,9.97
2023-02-11T23:42:02.241Z,5.95
2023-02-11T23:44:59.866Z,8.17
2023-02-11T23:47:58.552Z,7.87
2023-02-11T23:50:56.504Z,9.03
2023-02-11T23:53:56.769Z,10.73
2023-02-11T23:56:54.428Z,10.47
2023-02-11T23:59:53.912Z,8.10
